sensor_id;sensor_type;location;lat;lon;timestamp;P1;durP1;ratioP1;P2;durP2;ratioP2
38123;SDS011;23934;47.998;9.832;2023-06-04T00:01:42;18.85;;;7.95;;
38123;SDS011;23934;47.998;9.832;2023-06-04T00:04:09;15.60;;;7.00;;
38123;SDS011;23934;47.998;9.832;2023-06-04T00:06:35;16.20;;;7.53;;
38123;SDS011;23934;47.998;9.832;2023-06-04T00:09:01;17.25;;;6.95;;
38123;SDS011;23934;47.998;9.832;2023-06-04T00:11:27;18.98;;;7.40;;
38123;SDS011;23934;47.998;9.832;2023-06-04T00:13:53;18.20;;;6.95;;
38123;SDS011;23934;47.998;9.832;2023-06-04T00:16:19;18.38;;;7.03;;
38123;SDS011;23934;47.998;9.832;2023-06-04T00:18:45;15.55;;;7.40;;
38123;SDS011;23934;47.998;9.832;2023-06-04T00:21:11;18.52;;;7.25;;
38123;SDS011;23934;47.998;9.832;2023-06-04T00:23:37;16.20;;;7.55;;
38123;SDS011;23934;47.998;9.832;2023-06-04T00:26:03;19.15;;;6.80;;
38123;SDS011;23934;47.998;9.832;2023-06-04T00:28:29;16.05;;;7.15;;
38123;SDS011;23934;47.998;9.832;2023-06-04T00:30:55;18.15;;;7.45;;
38123;SDS011;23934;47.998;9.832;2023-06-04T00:33:21;19.00;;;7.93;;
38123;SDS011;23934;47.998;9.832;2023-06-04T00:35:47;15.10;;;7.15;;
38123;SDS011;23934;47.998;9.832;2023-06-04T00:38:13;17.67;;;7.35;;
38123;SDS011;23934;47.998;9.832;2023-06-04T00:40:39;20.00;;;7.97;;
38123;SDS011;23934;47.998;9.832;2023-06-04T00:43:05;26.42;;;7.45;;
38123;SDS011;23934;47.998;9.832;2023-06-04T00:45:31;18.73;;;7.18;;
38123;SDS011;23934;47.998;9.832;2023-06-04T00:47:57;18.92;;;7.32;;
38123;SDS011;23934;47.998;9.832;2023-06-04T00:50:23;15.57;;;6.93;;
38123;SDS011;23934;47.998;9.832;2023-06-04T00:52:50;15.68;;;7.13;;
38123;SDS011;23934;47.998;9.832;2023-06-04T00:55:16;15.93;;;7.65;;
38123;SDS011;23934;47.998;9.832;2023-06-04T00:57:44;21.08;;;7.45;;
38123;SDS011;23934;47.998;9.832;2023-06-04T01:00:11;17.73;;;6.60;;
38123;SDS011;23934;47.998;9.832;2023-06-04T01:02:37;19.02;;;7.65;;
38123;SDS011;23934;47.998;9.832;2023-06-04T01:05:11;24.92;;;7.80;;
38123;SDS011;23934;47.998;9.832;2023-06-04T01:07:40;25.05;;;8.05;;
38123;SDS011;23934;47.998;9.832;2023-06-04T01:10:10;15.48;;;7.43;;
38123;SDS011;23934;47.998;9.832;2023-06-04T01:12:39;19.08;;;7.75;;
38123;SDS011;23934;47.998;9.832;2023-06-04T01:15:05;22.67;;;7.75;;
38123;SDS011;23934;47.998;9.832;2023-06-04T01:17:37;16.27;;;7.10;;
38123;SDS011;23934;47.998;9.832;2023-06-04T01:20:22;26.90;;;8.40;;
38123;SDS011;23934;47.998;9.832;2023-06-04T01:27:49;25.98;;;8.02;;
38123;SDS011;23934;47.998;9.832;2023-06-04T01:30:18;23.67;;;7.40;;
38123;SDS011;23934;47.998;9.832;2023-06-04T01:32:44;18.05;;;7.47;;
38123;SDS011;23934;47.998;9.832;2023-06-04T01:35:11;21.08;;;8.15;;
38123;SDS011;23934;47.998;9.832;2023-06-04T01:37:37;17.23;;;7.15;;
38123;SDS011;23934;47.998;9.832;2023-06-04T01:40:04;20.17;;;7.80;;
38123;SDS011;23934;47.998;9.832;2023-06-04T01:42:30;18.83;;;8.20;;
38123;SDS011;23934;47.998;9.832;2023-06-04T01:44:56;15.88;;;7.15;;
38123;SDS011;23934;47.998;9.832;2023-06-04T01:47:22;18.85;;;7.68;;
38123;SDS011;23934;47.998;9.832;2023-06-04T01:49:48;19.17;;;8.00;;
38123;SDS011;23934;47.998;9.832;2023-06-04T01:52:14;21.40;;;7.80;;
38123;SDS011;23934;47.998;9.832;2023-06-04T01:54:41;17.63;;;6.88;;
38123;SDS011;23934;47.998;9.832;2023-06-04T01:57:07;18.23;;;7.43;;
38123;SDS011;23934;47.998;9.832;2023-06-04T01:59:35;18.17;;;6.45;;
38123;SDS011;23934;47.998;9.832;2023-06-04T02:02:04;15.50;;;7.15;;
38123;SDS011;23934;47.998;9.832;2023-06-04T02:04:30;17.52;;;7.35;;
38123;SDS011;23934;47.998;9.832;2023-06-04T02:06:56;18.20;;;7.45;;
38123;SDS011;23934;47.998;9.832;2023-06-04T02:09:24;13.80;;;7.10;;
38123;SDS011;23934;47.998;9.832;2023-06-04T02:11:52;21.73;;;7.18;;
38123;SDS011;23934;47.998;9.832;2023-06-04T02:14:18;22.05;;;7.22;;
38123;SDS011;23934;47.998;9.832;2023-06-04T02:16:44;19.27;;;6.78;;
38123;SDS011;23934;47.998;9.832;2023-06-04T02:19:09;15.57;;;7.40;;
38123;SDS011;23934;47.998;9.832;2023-06-04T02:21:37;14.65;;;7.05;;
38123;SDS011;23934;47.998;9.832;2023-06-04T02:24:03;20.58;;;7.88;;
38123;SDS011;23934;47.998;9.832;2023-06-04T02:26:30;17.65;;;7.03;;
38123;SDS011;23934;47.998;9.832;2023-06-04T02:28:56;16.73;;;6.60;;
38123;SDS011;23934;47.998;9.832;2023-06-04T02:31:21;14.82;;;6.18;;
38123;SDS011;23934;47.998;9.832;2023-06-04T02:33:47;15.85;;;7.00;;
38123;SDS011;23934;47.998;9.832;2023-06-04T02:36:13;20.60;;;7.90;;
38123;SDS011;23934;47.998;9.832;2023-06-04T02:38:42;17.85;;;7.43;;
38123;SDS011;23934;47.998;9.832;2023-06-04T02:41:08;18.35;;;7.20;;
38123;SDS011;23934;47.998;9.832;2023-06-04T02:43:34;17.80;;;6.70;;
38123;SDS011;23934;47.998;9.832;2023-06-04T02:46:00;19.83;;;7.15;;
38123;SDS011;23934;47.998;9.832;2023-06-04T02:48:26;16.85;;;7.20;;
38123;SDS011;23934;47.998;9.832;2023-06-04T02:50:52;18.70;;;7.30;;
38123;SDS011;23934;47.998;9.832;2023-06-04T02:53:18;14.75;;;6.25;;
38123;SDS011;23934;47.998;9.832;2023-06-04T02:55:45;16.77;;;7.43;;
38123;SDS011;23934;47.998;9.832;2023-06-04T02:58:11;14.00;;;6.72;;
38123;SDS011;23934;47.998;9.832;2023-06-04T03:00:39;15.98;;;6.75;;
38123;SDS011;23934;47.998;9.832;2023-06-04T03:03:05;24.17;;;6.88;;
38123;SDS011;23934;47.998;9.832;2023-06-04T03:05:31;15.70;;;6.68;;
38123;SDS011;23934;47.998;9.832;2023-06-04T03:07:58;24.63;;;7.88;;
38123;SDS011;23934;47.998;9.832;2023-06-04T03:10:24;19.65;;;7.35;;
38123;SDS011;23934;47.998;9.832;2023-06-04T03:12:50;17.35;;;7.80;;
38123;SDS011;23934;47.998;9.832;2023-06-04T03:15:16;22.17;;;7.95;;
38123;SDS011;23934;47.998;9.832;2023-06-04T03:17:42;18.00;;;7.07;;
38123;SDS011;23934;47.998;9.832;2023-06-04T03:20:09;20.40;;;7.68;;
38123;SDS011;23934;47.998;9.832;2023-06-04T03:22:35;19.10;;;6.85;;
38123;SDS011;23934;47.998;9.832;2023-06-04T03:25:01;19.52;;;7.78;;
38123;SDS011;23934;47.998;9.832;2023-06-04T03:27:28;20.13;;;7.32;;
38123;SDS011;23934;47.998;9.832;2023-06-04T03:29:54;17.58;;;6.72;;
38123;SDS011;23934;47.998;9.832;2023-06-04T03:32:20;21.50;;;7.95;;
38123;SDS011;23934;47.998;9.832;2023-06-04T03:34:46;16.52;;;7.20;;
38123;SDS011;23934;47.998;9.832;2023-06-04T03:37:12;17.15;;;6.50;;
38123;SDS011;23934;47.998;9.832;2023-06-04T03:39:38;14.82;;;5.90;;
38123;SDS011;23934;47.998;9.832;2023-06-04T03:42:04;18.02;;;6.63;;
38123;SDS011;23934;47.998;9.832;2023-06-04T03:44:30;17.38;;;7.47;;
38123;SDS011;23934;47.998;9.832;2023-06-04T03:46:56;19.10;;;7.45;;
38123;SDS011;23934;47.998;9.832;2023-06-04T03:49:22;17.67;;;7.07;;
38123;SDS011;23934;47.998;9.832;2023-06-04T03:51:48;18.25;;;7.07;;
38123;SDS011;23934;47.998;9.832;2023-06-04T03:54:14;16.23;;;6.95;;
38123;SDS011;23934;47.998;9.832;2023-06-04T03:56:46;16.90;;;6.80;;
38123;SDS011;23934;47.998;9.832;2023-06-04T03:59:12;15.02;;;7.22;;
38123;SDS011;23934;47.998;9.832;2023-06-04T04:01:38;18.45;;;7.03;;
38123;SDS011;23934;47.998;9.832;2023-06-04T04:04:04;19.90;;;6.85;;
38123;SDS011;23934;47.998;9.832;2023-06-04T04:06:30;16.83;;;6.95;;
38123;SDS011;23934;47.998;9.832;2023-06-04T04:08:57;17.73;;;7.07;;
38123;SDS011;23934;47.998;9.832;2023-06-04T04:11:23;16.98;;;7.00;;
38123;SDS011;23934;47.998;9.832;2023-06-04T04:13:50;14.00;;;6.47;;
38123;SDS011;23934;47.998;9.832;2023-06-04T04:16:16;19.58;;;6.78;;
38123;SDS011;23934;47.998;9.832;2023-06-04T04:18:42;19.25;;;7.03;;
38123;SDS011;23934;47.998;9.832;2023-06-04T04:21:09;13.77;;;6.35;;
38123;SDS011;23934;47.998;9.832;2023-06-04T04:23:37;16.48;;;6.40;;
38123;SDS011;23934;47.998;9.832;2023-06-04T04:26:03;13.38;;;6.35;;
38123;SDS011;23934;47.998;9.832;2023-06-04T04:28:29;15.40;;;6.75;;
38123;SDS011;23934;47.998;9.832;2023-06-04T04:30:57;13.65;;;5.88;;
38123;SDS011;23934;47.998;9.832;2023-06-04T04:33:27;13.82;;;5.90;;
38123;SDS011;23934;47.998;9.832;2023-06-04T04:35:57;19.15;;;6.43;;
38123;SDS011;23934;47.998;9.832;2023-06-04T04:38:24;22.63;;;6.40;;
38123;SDS011;23934;47.998;9.832;2023-06-04T04:40:51;17.80;;;5.70;;
38123;SDS011;23934;47.998;9.832;2023-06-04T04:43:19;12.63;;;6.28;;
38123;SDS011;23934;47.998;9.832;2023-06-04T04:45:53;14.60;;;6.25;;
38123;SDS011;23934;47.998;9.832;2023-06-04T04:48:19;23.80;;;6.43;;
38123;SDS011;23934;47.998;9.832;2023-06-04T04:50:45;14.27;;;6.15;;
38123;SDS011;23934;47.998;9.832;2023-06-04T04:53:11;16.40;;;6.32;;
38123;SDS011;23934;47.998;9.832;2023-06-04T04:55:37;14.05;;;6.20;;
38123;SDS011;23934;47.998;9.832;2023-06-04T04:58:03;13.90;;;6.10;;
38123;SDS011;23934;47.998;9.832;2023-06-04T05:00:29;11.77;;;5.75;;
38123;SDS011;23934;47.998;9.832;2023-06-04T05:02:55;18.98;;;6.30;;
38123;SDS011;23934;47.998;9.832;2023-06-04T05:05:21;17.90;;;6.38;;
38123;SDS011;23934;47.998;9.832;2023-06-04T05:07:47;16.02;;;6.65;;
38123;SDS011;23934;47.998;9.832;2023-06-04T05:10:13;13.07;;;6.18;;
38123;SDS011;23934;47.998;9.832;2023-06-04T05:12:40;17.65;;;6.30;;
38123;SDS011;23934;47.998;9.832;2023-06-04T05:15:15;18.90;;;6.18;;
38123;SDS011;23934;47.998;9.832;2023-06-04T05:17:43;9.38;;;5.18;;
38123;SDS011;23934;47.998;9.832;2023-06-04T05:20:09;17.20;;;6.30;;
38123;SDS011;23934;47.998;9.832;2023-06-04T05:22:37;12.77;;;5.75;;
38123;SDS011;23934;47.998;9.832;2023-06-04T05:25:03;13.93;;;5.57;;
38123;SDS011;23934;47.998;9.832;2023-06-04T05:27:30;11.48;;;5.50;;
38123;SDS011;23934;47.998;9.832;2023-06-04T05:29:57;13.98;;;5.55;;
38123;SDS011;23934;47.998;9.832;2023-06-04T05:32:23;16.10;;;5.60;;
38123;SDS011;23934;47.998;9.832;2023-06-04T05:34:49;12.40;;;5.97;;
38123;SDS011;23934;47.998;9.832;2023-06-04T05:37:15;15.88;;;5.70;;
38123;SDS011;23934;47.998;9.832;2023-06-04T05:39:44;21.67;;;6.47;;
38123;SDS011;23934;47.998;9.832;2023-06-04T05:42:10;12.52;;;6.30;;
38123;SDS011;23934;47.998;9.832;2023-06-04T05:44:36;21.50;;;6.25;;
38123;SDS011;23934;47.998;9.832;2023-06-04T05:47:02;15.95;;;6.28;;
38123;SDS011;23934;47.998;9.832;2023-06-04T05:49:28;16.75;;;6.47;;
38123;SDS011;23934;47.998;9.832;2023-06-04T05:51:54;14.70;;;6.68;;
38123;SDS011;23934;47.998;9.832;2023-06-04T05:54:20;17.35;;;5.90;;
38123;SDS011;23934;47.998;9.832;2023-06-04T05:56:46;10.57;;;5.28;;
38123;SDS011;23934;47.998;9.832;2023-06-04T05:59:12;10.93;;;5.50;;
38123;SDS011;23934;47.998;9.832;2023-06-04T06:01:38;13.23;;;6.47;;
38123;SDS011;23934;47.998;9.832;2023-06-04T06:04:04;13.90;;;6.10;;
38123;SDS011;23934;47.998;9.832;2023-06-04T06:06:30;12.63;;;5.65;;
38123;SDS011;23934;47.998;9.832;2023-06-04T06:08:56;12.55;;;5.22;;
38123;SDS011;23934;47.998;9.832;2023-06-04T06:11:23;10.73;;;5.93;;
38123;SDS011;23934;47.998;9.832;2023-06-04T06:13:51;12.13;;;5.50;;
38123;SDS011;23934;47.998;9.832;2023-06-04T06:16:17;32.88;;;5.93;;
38123;SDS011;23934;47.998;9.832;2023-06-04T06:18:43;11.25;;;5.88;;
38123;SDS011;23934;47.998;9.832;2023-06-04T06:21:10;10.57;;;5.70;;
38123;SDS011;23934;47.998;9.832;2023-06-04T06:23:36;10.07;;;5.97;;
38123;SDS011;23934;47.998;9.832;2023-06-04T06:26:02;12.57;;;5.60;;
38123;SDS011;23934;47.998;9.832;2023-06-04T06:28:29;12.02;;;5.95;;
38123;SDS011;23934;47.998;9.832;2023-06-04T06:30:55;12.55;;;6.28;;
38123;SDS011;23934;47.998;9.832;2023-06-04T06:33:21;10.15;;;5.93;;
38123;SDS011;23934;47.998;9.832;2023-06-04T06:35:48;11.73;;;5.78;;
38123;SDS011;23934;47.998;9.832;2023-06-04T06:38:14;13.25;;;5.88;;
38123;SDS011;23934;47.998;9.832;2023-06-04T06:40:40;10.30;;;5.68;;
38123;SDS011;23934;47.998;9.832;2023-06-04T06:43:06;12.50;;;6.47;;
38123;SDS011;23934;47.998;9.832;2023-06-04T06:45:32;13.05;;;6.10;;
38123;SDS011;23934;47.998;9.832;2023-06-04T06:47:58;12.25;;;6.35;;
38123;SDS011;23934;47.998;9.832;2023-06-04T06:50:24;9.73;;;5.32;;
38123;SDS011;23934;47.998;9.832;2023-06-04T06:52:50;16.02;;;6.10;;
38123;SDS011;23934;47.998;9.832;2023-06-04T06:55:16;9.00;;;5.40;;
38123;SDS011;23934;47.998;9.832;2023-06-04T06:57:42;15.90;;;5.75;;
38123;SDS011;23934;47.998;9.832;2023-06-04T07:00:09;12.50;;;5.78;;
38123;SDS011;23934;47.998;9.832;2023-06-04T07:02:35;12.30;;;5.80;;
38123;SDS011;23934;47.998;9.832;2023-06-04T07:05:01;13.35;;;5.25;;
38123;SDS011;23934;47.998;9.832;2023-06-04T07:07:27;10.15;;;5.63;;
38123;SDS011;23934;47.998;9.832;2023-06-04T07:09:53;10.77;;;5.38;;
38123;SDS011;23934;47.998;9.832;2023-06-04T07:12:19;11.88;;;5.40;;
38123;SDS011;23934;47.998;9.832;2023-06-04T07:14:45;9.55;;;5.43;;
38123;SDS011;23934;47.998;9.832;2023-06-04T07:17:11;15.18;;;5.57;;
38123;SDS011;23934;47.998;9.832;2023-06-04T07:19:37;10.43;;;5.40;;
38123;SDS011;23934;47.998;9.832;2023-06-04T07:22:03;14.98;;;5.80;;
38123;SDS011;23934;47.998;9.832;2023-06-04T07:24:30;11.13;;;5.15;;
38123;SDS011;23934;47.998;9.832;2023-06-04T07:26:55;10.95;;;5.15;;
38123;SDS011;23934;47.998;9.832;2023-06-04T07:29:21;8.88;;;4.88;;
38123;SDS011;23934;47.998;9.832;2023-06-04T07:31:47;10.73;;;4.70;;
38123;SDS011;23934;47.998;9.832;2023-06-04T07:34:13;10.45;;;5.38;;
38123;SDS011;23934;47.998;9.832;2023-06-04T07:36:39;12.65;;;5.03;;
38123;SDS011;23934;47.998;9.832;2023-06-04T07:39:06;15.95;;;6.05;;
38123;SDS011;23934;47.998;9.832;2023-06-04T07:41:32;8.30;;;5.22;;
38123;SDS011;23934;47.998;9.832;2023-06-04T07:43:59;9.27;;;5.07;;
38123;SDS011;23934;47.998;9.832;2023-06-04T07:46:24;13.95;;;5.07;;
38123;SDS011;23934;47.998;9.832;2023-06-04T07:48:50;13.35;;;5.35;;
38123;SDS011;23934;47.998;9.832;2023-06-04T07:51:16;10.60;;;5.13;;
38123;SDS011;23934;47.998;9.832;2023-06-04T07:53:44;11.43;;;5.28;;
38123;SDS011;23934;47.998;9.832;2023-06-04T07:56:10;13.95;;;5.20;;
38123;SDS011;23934;47.998;9.832;2023-06-04T07:58:36;11.00;;;4.93;;
38123;SDS011;23934;47.998;9.832;2023-06-04T08:01:02;10.13;;;5.43;;
38123;SDS011;23934;47.998;9.832;2023-06-04T08:03:28;10.07;;;5.40;;
38123;SDS011;23934;47.998;9.832;2023-06-04T08:05:54;10.98;;;4.80;;
38123;SDS011;23934;47.998;9.832;2023-06-04T08:08:20;8.35;;;4.65;;
38123;SDS011;23934;47.998;9.832;2023-06-04T08:10:46;10.02;;;4.50;;
38123;SDS011;23934;47.998;9.832;2023-06-04T08:13:12;12.30;;;5.13;;
38123;SDS011;23934;47.998;9.832;2023-06-04T08:15:38;11.13;;;4.75;;
38123;SDS011;23934;47.998;9.832;2023-06-04T08:18:04;7.50;;;4.32;;
38123;SDS011;23934;47.998;9.832;2023-06-04T08:20:30;9.40;;;4.78;;
38123;SDS011;23934;47.998;9.832;2023-06-04T08:22:56;9.57;;;5.05;;
38123;SDS011;23934;47.998;9.832;2023-06-04T08:25:22;9.23;;;4.75;;
38123;SDS011;23934;47.998;9.832;2023-06-04T08:27:48;8.93;;;4.55;;
38123;SDS011;23934;47.998;9.832;2023-06-04T08:30:14;8.35;;;4.63;;
38123;SDS011;23934;47.998;9.832;2023-06-04T08:32:40;13.90;;;5.72;;
38123;SDS011;23934;47.998;9.832;2023-06-04T08:35:06;10.88;;;4.32;;
38123;SDS011;23934;47.998;9.832;2023-06-04T08:37:32;9.10;;;4.55;;
38123;SDS011;23934;47.998;9.832;2023-06-04T08:39:58;12.23;;;5.68;;
38123;SDS011;23934;47.998;9.832;2023-06-04T08:42:34;8.85;;;4.90;;
38123;SDS011;23934;47.998;9.832;2023-06-04T08:45:02;9.68;;;5.10;;
38123;SDS011;23934;47.998;9.832;2023-06-04T08:47:29;10.32;;;4.80;;
38123;SDS011;23934;47.998;9.832;2023-06-04T08:49:56;12.85;;;5.57;;
38123;SDS011;23934;47.998;9.832;2023-06-04T08:52:25;6.53;;;4.05;;
38123;SDS011;23934;47.998;9.832;2023-06-04T08:54:51;15.93;;;5.05;;
38123;SDS011;23934;47.998;9.832;2023-06-04T08:57:18;9.70;;;4.50;;
38123;SDS011;23934;47.998;9.832;2023-06-04T08:59:47;10.57;;;4.65;;
38123;SDS011;23934;47.998;9.832;2023-06-04T09:02:14;15.90;;;4.43;;
38123;SDS011;23934;47.998;9.832;2023-06-04T09:04:40;9.32;;;4.97;;
38123;SDS011;23934;47.998;9.832;2023-06-04T09:07:06;12.25;;;4.95;;
38123;SDS011;23934;47.998;9.832;2023-06-04T09:09:32;11.82;;;4.60;;
38123;SDS011;23934;47.998;9.832;2023-06-04T09:12:02;6.60;;;4.30;;
38123;SDS011;23934;47.998;9.832;2023-06-04T09:14:29;13.55;;;4.80;;
38123;SDS011;23934;47.998;9.832;2023-06-04T09:16:55;8.95;;;4.38;;
38123;SDS011;23934;47.998;9.832;2023-06-04T09:19:23;11.25;;;4.97;;
38123;SDS011;23934;47.998;9.832;2023-06-04T09:24:16;11.52;;;4.65;;
38123;SDS011;23934;47.998;9.832;2023-06-04T09:27:08;9.00;;;4.60;;
38123;SDS011;23934;47.998;9.832;2023-06-04T09:29:28;9.45;;;4.40;;
38123;SDS011;23934;47.998;9.832;2023-06-04T09:31:57;8.88;;;4.13;;
38123;SDS011;23934;47.998;9.832;2023-06-04T09:34:30;13.63;;;5.25;;
38123;SDS011;23934;47.998;9.832;2023-06-04T09:36:56;8.13;;;4.60;;
38123;SDS011;23934;47.998;9.832;2023-06-04T09:39:22;10.23;;;4.35;;
38123;SDS011;23934;47.998;9.832;2023-06-04T09:41:58;7.30;;;3.97;;
38123;SDS011;23934;47.998;9.832;2023-06-04T09:44:25;8.60;;;4.90;;
38123;SDS011;23934;47.998;9.832;2023-06-04T09:46:55;12.25;;;5.13;;
38123;SDS011;23934;47.998;9.832;2023-06-04T09:49:21;7.18;;;4.00;;
38123;SDS011;23934;47.998;9.832;2023-06-04T09:51:52;8.57;;;4.28;;
38123;SDS011;23934;47.998;9.832;2023-06-04T09:54:18;10.27;;;4.78;;
38123;SDS011;23934;47.998;9.832;2023-06-04T09:56:44;6.45;;;4.35;;
38123;SDS011;23934;47.998;9.832;2023-06-04T09:59:10;11.68;;;4.88;;
38123;SDS011;23934;47.998;9.832;2023-06-04T10:01:39;7.97;;;4.03;;
38123;SDS011;23934;47.998;9.832;2023-06-04T10:04:06;8.05;;;4.35;;
38123;SDS011;23934;47.998;9.832;2023-06-04T10:06:33;8.00;;;4.55;;
38123;SDS011;23934;47.998;9.832;2023-06-04T10:08:59;7.72;;;4.32;;
38123;SDS011;23934;47.998;9.832;2023-06-04T10:11:40;14.15;;;5.53;;
38123;SDS011;23934;47.998;9.832;2023-06-04T10:16:43;11.75;;;5.20;;
38123;SDS011;23934;47.998;9.832;2023-06-04T10:19:10;10.77;;;3.95;;
38123;SDS011;23934;47.998;9.832;2023-06-04T10:21:36;7.40;;;4.03;;
38123;SDS011;23934;47.998;9.832;2023-06-04T10:24:03;14.00;;;4.57;;
38123;SDS011;23934;47.998;9.832;2023-06-04T10:26:29;8.68;;;3.90;;
38123;SDS011;23934;47.998;9.832;2023-06-04T10:28:56;12.02;;;4.97;;
38123;SDS011;23934;47.998;9.832;2023-06-04T10:31:22;8.85;;;4.50;;
38123;SDS011;23934;47.998;9.832;2023-06-04T10:33:53;9.77;;;4.10;;
38123;SDS011;23934;47.998;9.832;2023-06-04T10:36:22;9.40;;;4.53;;
38123;SDS011;23934;47.998;9.832;2023-06-04T10:38:49;11.77;;;4.60;;
38123;SDS011;23934;47.998;9.832;2023-06-04T10:41:16;9.57;;;4.55;;
38123;SDS011;23934;47.998;9.832;2023-06-04T10:43:42;12.18;;;4.72;;
38123;SDS011;23934;47.998;9.832;2023-06-04T10:46:12;8.32;;;4.25;;
38123;SDS011;23934;47.998;9.832;2023-06-04T10:48:48;8.93;;;4.22;;
38123;SDS011;23934;47.998;9.832;2023-06-04T10:51:15;10.73;;;4.35;;
38123;SDS011;23934;47.998;9.832;2023-06-04T10:53:41;7.32;;;4.50;;
38123;SDS011;23934;47.998;9.832;2023-06-04T10:56:07;8.25;;;4.07;;
38123;SDS011;23934;47.998;9.832;2023-06-04T10:58:34;12.57;;;4.32;;
38123;SDS011;23934;47.998;9.832;2023-06-04T11:01:00;8.45;;;4.18;;
38123;SDS011;23934;47.998;9.832;2023-06-04T11:03:36;9.48;;;4.05;;
38123;SDS011;23934;47.998;9.832;2023-06-04T11:06:02;8.60;;;4.57;;
38123;SDS011;23934;47.998;9.832;2023-06-04T11:08:28;8.23;;;4.63;;
38123;SDS011;23934;47.998;9.832;2023-06-04T11:10:55;12.88;;;4.10;;
38123;SDS011;23934;47.998;9.832;2023-06-04T11:13:24;6.78;;;3.92;;
38123;SDS011;23934;47.998;9.832;2023-06-04T11:15:50;8.38;;;4.78;;
38123;SDS011;23934;47.998;9.832;2023-06-04T11:18:17;14.15;;;4.65;;
38123;SDS011;23934;47.998;9.832;2023-06-04T11:20:44;14.90;;;4.78;;
38123;SDS011;23934;47.998;9.832;2023-06-04T11:23:11;9.60;;;4.60;;
38123;SDS011;23934;47.998;9.832;2023-06-04T11:25:37;8.70;;;4.22;;
38123;SDS011;23934;47.998;9.832;2023-06-04T11:28:03;10.85;;;4.40;;
38123;SDS011;23934;47.998;9.832;2023-06-04T11:30:29;8.13;;;4.45;;
38123;SDS011;23934;47.998;9.832;2023-06-04T11:33:02;14.27;;;4.72;;
38123;SDS011;23934;47.998;9.832;2023-06-04T11:35:28;10.18;;;4.15;;
38123;SDS011;23934;47.998;9.832;2023-06-04T11:37:55;8.48;;;3.85;;
38123;SDS011;23934;47.998;9.832;2023-06-04T11:40:21;6.28;;;3.70;;
38123;SDS011;23934;47.998;9.832;2023-06-04T11:42:47;10.32;;;4.40;;
38123;SDS011;23934;47.998;9.832;2023-06-04T11:45:16;7.75;;;4.40;;
38123;SDS011;23934;47.998;9.832;2023-06-04T11:47:55;11.38;;;3.92;;
38123;SDS011;23934;47.998;9.832;2023-06-04T11:50:22;10.85;;;4.43;;
38123;SDS011;23934;47.998;9.832;2023-06-04T11:52:48;10.98;;;4.35;;
38123;SDS011;23934;47.998;9.832;2023-06-04T11:55:14;8.23;;;4.03;;
38123;SDS011;23934;47.998;9.832;2023-06-04T11:57:45;11.68;;;4.90;;
38123;SDS011;23934;47.998;9.832;2023-06-04T12:00:11;7.35;;;4.53;;
38123;SDS011;23934;47.998;9.832;2023-06-04T12:02:38;10.38;;;4.35;;
38123;SDS011;23934;47.998;9.832;2023-06-04T12:05:11;11.43;;;4.25;;
38123;SDS011;23934;47.998;9.832;2023-06-04T12:07:37;12.50;;;4.30;;
38123;SDS011;23934;47.998;9.832;2023-06-04T12:10:07;9.75;;;4.20;;
38123;SDS011;23934;47.998;9.832;2023-06-04T12:12:39;9.43;;;4.20;;
38123;SDS011;23934;47.998;9.832;2023-06-04T12:15:06;11.32;;;4.53;;
38123;SDS011;23934;47.998;9.832;2023-06-04T12:17:34;10.00;;;3.78;;
38123;SDS011;23934;47.998;9.832;2023-06-04T12:20:00;10.05;;;4.60;;
38123;SDS011;23934;47.998;9.832;2023-06-04T12:22:26;10.95;;;4.10;;
38123;SDS011;23934;47.998;9.832;2023-06-04T12:24:53;9.20;;;4.43;;
38123;SDS011;23934;47.998;9.832;2023-06-04T12:27:21;9.85;;;4.70;;
38123;SDS011;23934;47.998;9.832;2023-06-04T12:30:01;7.43;;;3.83;;
38123;SDS011;23934;47.998;9.832;2023-06-04T12:32:27;10.73;;;4.53;;
38123;SDS011;23934;47.998;9.832;2023-06-04T12:34:53;6.38;;;4.03;;
38123;SDS011;23934;47.998;9.832;2023-06-04T12:37:20;8.43;;;4.47;;
38123;SDS011;23934;47.998;9.832;2023-06-04T12:39:46;10.77;;;4.15;;
38123;SDS011;23934;47.998;9.832;2023-06-04T12:42:12;10.32;;;4.78;;
38123;SDS011;23934;47.998;9.832;2023-06-04T12:44:38;12.05;;;4.40;;
38123;SDS011;23934;47.998;9.832;2023-06-04T12:47:05;7.22;;;4.25;;
38123;SDS011;23934;47.998;9.832;2023-06-04T12:49:31;8.40;;;4.35;;
38123;SDS011;23934;47.998;9.832;2023-06-04T12:51:57;11.85;;;4.32;;
38123;SDS011;23934;47.998;9.832;2023-06-04T12:54:23;7.70;;;4.57;;
38123;SDS011;23934;47.998;9.832;2023-06-04T12:56:50;17.58;;;4.68;;
38123;SDS011;23934;47.998;9.832;2023-06-04T12:59:16;8.73;;;4.53;;
38123;SDS011;23934;47.998;9.832;2023-06-04T13:01:42;7.72;;;4.10;;
38123;SDS011;23934;47.998;9.832;2023-06-04T13:04:08;8.80;;;4.32;;
38123;SDS011;23934;47.998;9.832;2023-06-04T13:06:34;8.00;;;4.00;;
38123;SDS011;23934;47.998;9.832;2023-06-04T13:09:01;9.68;;;4.43;;
38123;SDS011;23934;47.998;9.832;2023-06-04T13:11:28;7.40;;;4.28;;
38123;SDS011;23934;47.998;9.832;2023-06-04T13:13:54;13.35;;;4.57;;
38123;SDS011;23934;47.998;9.832;2023-06-04T13:16:20;12.95;;;4.80;;
38123;SDS011;23934;47.998;9.832;2023-06-04T13:18:46;8.70;;;4.45;;
38123;SDS011;23934;47.998;9.832;2023-06-04T13:21:12;7.90;;;4.30;;
38123;SDS011;23934;47.998;9.832;2023-06-04T13:23:38;11.95;;;4.40;;
38123;SDS011;23934;47.998;9.832;2023-06-04T13:26:04;11.15;;;4.85;;
38123;SDS011;23934;47.998;9.832;2023-06-04T13:28:30;6.85;;;4.03;;
38123;SDS011;23934;47.998;9.832;2023-06-04T13:30:56;9.07;;;4.30;;
38123;SDS011;23934;47.998;9.832;2023-06-04T13:33:22;8.38;;;4.57;;
38123;SDS011;23934;47.998;9.832;2023-06-04T13:35:48;8.88;;;4.28;;
38123;SDS011;23934;47.998;9.832;2023-06-04T13:38:15;9.18;;;4.50;;
38123;SDS011;23934;47.998;9.832;2023-06-04T13:40:41;7.60;;;4.38;;
38123;SDS011;23934;47.998;9.832;2023-06-04T13:43:08;8.52;;;4.28;;
38123;SDS011;23934;47.998;9.832;2023-06-04T13:45:34;6.85;;;4.40;;
38123;SDS011;23934;47.998;9.832;2023-06-04T13:48:00;15.57;;;4.70;;
38123;SDS011;23934;47.998;9.832;2023-06-04T13:50:31;8.32;;;4.78;;
38123;SDS011;23934;47.998;9.832;2023-06-04T13:52:57;13.20;;;4.75;;
38123;SDS011;23934;47.998;9.832;2023-06-04T13:55:23;8.63;;;4.82;;
38123;SDS011;23934;47.998;9.832;2023-06-04T13:57:49;6.53;;;4.03;;
38123;SDS011;23934;47.998;9.832;2023-06-04T14:00:15;15.10;;;4.55;;
38123;SDS011;23934;47.998;9.832;2023-06-04T14:02:41;7.70;;;4.30;;
38123;SDS011;23934;47.998;9.832;2023-06-04T14:05:07;8.23;;;4.15;;
38123;SDS011;23934;47.998;9.832;2023-06-04T14:07:33;8.48;;;4.07;;
38123;SDS011;23934;47.998;9.832;2023-06-04T14:09:59;14.88;;;4.43;;
38123;SDS011;23934;47.998;9.832;2023-06-04T14:12:25;8.13;;;4.28;;
38123;SDS011;23934;47.998;9.832;2023-06-04T14:14:51;18.50;;;3.97;;
38123;SDS011;23934;47.998;9.832;2023-06-04T14:17:17;8.07;;;4.10;;
38123;SDS011;23934;47.998;9.832;2023-06-04T14:19:44;8.15;;;4.43;;
38123;SDS011;23934;47.998;9.832;2023-06-04T14:22:10;7.05;;;4.32;;
38123;SDS011;23934;47.998;9.832;2023-06-04T14:24:37;8.85;;;4.80;;
38123;SDS011;23934;47.998;9.832;2023-06-04T14:27:03;8.43;;;4.50;;
38123;SDS011;23934;47.998;9.832;2023-06-04T14:29:29;8.52;;;4.07;;
38123;SDS011;23934;47.998;9.832;2023-06-04T14:31:55;9.80;;;4.15;;
38123;SDS011;23934;47.998;9.832;2023-06-04T14:34:21;7.43;;;4.50;;
38123;SDS011;23934;47.998;9.832;2023-06-04T14:36:46;9.80;;;4.93;;
38123;SDS011;23934;47.998;9.832;2023-06-04T14:39:12;10.02;;;4.95;;
38123;SDS011;23934;47.998;9.832;2023-06-04T14:41:38;9.85;;;4.47;;
38123;SDS011;23934;47.998;9.832;2023-06-04T14:44:04;10.25;;;4.63;;
38123;SDS011;23934;47.998;9.832;2023-06-04T14:46:30;7.35;;;3.78;;